createdAt,value
2022-08-03T00:02:39.008Z,92434.09
2022-08-03T00:06:04.605Z,92434.94
2022-08-03T00:09:07.512Z,92428.56
2022-08-03T00:12:11.645Z,92437.19
2022-08-03T00:15:16.875Z,92441.75
2022-08-03T00:18:20.849Z,92449.25
2022-08-03T00:21:25.208Z,92451.53
2022-08-03T00:24:28.895Z,92449.91
2022-08-03T00:27:32.819Z,92427.19
2022-08-03T00:30:39.248Z,92434.38
2022-08-03T00:33:59.673Z,92435.28
2022-08-03T00:37:07.166Z,92438.63
2022-08-03T00:40:16.625Z,92432.53
2022-08-03T00:43:20.592Z,92432.84
2022-08-03T00:46:24.585Z,92442.69
2022-08-03T00:49:28.840Z,92441.41
2022-08-03T00:52:33.067Z,92434.50
2022-08-03T00:55:40.233Z,92429.63
2022-08-03T00:58:46.313Z,92431.22
2022-08-03T01:01:49.735Z,92426.78
2022-08-03T01:04:54.389Z,92422.88
2022-08-03T01:08:11.480Z,92422.91
2022-08-03T01:12:00.843Z,92410.22
2022-08-03T01:15:10.800Z,92415.03
2022-08-03T01:18:29.355Z,92423.22
2022-08-03T01:21:41.486Z,92418.28
2022-08-03T01:25:07.956Z,92439.13
2022-08-03T01:28:14.453Z,92433.25
2022-08-03T01:31:27.149Z,92435.13
2022-08-03T01:34:35.207Z,92413.31
2022-08-03T01:37:48.845Z,92434.88
2022-08-03T01:40:55.382Z,92436.13
2022-08-03T01:44:29.443Z,92438.13
2022-08-03T01:47:25.967Z,92443.72
2022-08-03T01:50:32.136Z,92450.72
2022-08-03T01:53:37.727Z,92455.25
2022-08-03T01:56:43.943Z,92449.03
2022-08-03T01:59:50.332Z,92467.28
2022-08-03T02:02:56.583Z,92455.84
2022-08-03T02:07:00.579Z,92473.63
2022-08-03T02:09:28.017Z,92464.94
2022-08-03T02:12:33.256Z,92478.25
2022-08-03T02:15:41.068Z,92485.88
2022-08-03T02:18:46.459Z,92475.88
2022-08-03T02:21:56.637Z,92477.75
2022-08-03T02:25:05.218Z,92477.34
2022-08-03T02:28:19.066Z,92478.25
2022-08-03T02:31:27.974Z,92480.88
2022-08-03T02:34:35.169Z,92488.84
2022-08-03T02:37:45.079Z,92483.53
2022-08-03T02:40:57.497Z,92488.75
2022-08-03T02:44:07.086Z,92482.81
2022-08-03T02:47:13.578Z,92478.38
2022-08-03T02:50:18.619Z,92478.50
2022-08-03T02:53:24.381Z,92465.34
2022-08-03T02:56:29.084Z,92461.94
2022-08-03T02:59:33.300Z,92476.88
2022-08-03T03:02:38.080Z,92485.28
2022-08-03T03:05:53.596Z,92469.34
2022-08-03T03:09:05.137Z,92481.44
2022-08-03T03:12:10.992Z,92492.00
2022-08-03T03:15:14.696Z,92485.03
2022-08-03T03:18:22.250Z,92494.44
2022-08-03T03:21:28.517Z,92483.16
2022-08-03T03:24:32.762Z,92478.97
2022-08-03T03:27:36.751Z,92482.50
2022-08-03T03:30:41.849Z,92473.56
2022-08-03T03:33:46.395Z,92479.25
2022-08-03T03:36:50.089Z,92470.09
2022-08-03T03:39:56.849Z,92457.50
2022-08-03T03:43:00.608Z,92454.06
2022-08-03T03:46:06.019Z,92454.09
2022-08-03T03:49:09.938Z,92470.91
2022-08-03T03:52:14.476Z,92467.41
2022-08-03T03:55:19.703Z,92465.31
2022-08-03T03:58:24.894Z,92480.72
2022-08-03T04:01:29.250Z,92493.34
2022-08-03T04:04:52.818Z,92505.94
2022-08-03T04:08:26.288Z,92509.44
2022-08-03T04:11:38.071Z,92504.53
2022-08-03T04:14:43.466Z,92503.13
2022-08-03T04:17:48.085Z,92497.50
2022-08-03T04:20:53.845Z,92467.28
2022-08-03T04:24:02.697Z,92452.56
2022-08-03T04:27:09.420Z,92456.06
2022-08-03T04:30:15.864Z,92458.91
2022-08-03T04:33:21.081Z,92462.50
2022-08-03T04:36:31.496Z,92439.38
2022-08-03T04:39:37.365Z,92449.16
2022-08-03T04:42:42.730Z,92456.09
2022-08-03T04:45:52.143Z,92458.22
2022-08-03T04:48:56.636Z,92451.22
2022-08-03T04:52:00.840Z,92466.00
2022-08-03T04:55:04.323Z,92470.94
2022-08-03T04:58:08.421Z,92491.88
2022-08-03T05:01:12.136Z,92484.13
2022-08-03T05:04:15.761Z,92480.00
2022-08-03T05:07:24.876Z,92498.91
2022-08-03T05:10:29.334Z,92493.34
2022-08-03T05:13:33.139Z,92498.25
2022-08-03T05:16:36.946Z,92508.00
2022-08-03T05:19:40.949Z,92512.75
2022-08-03T05:22:45.137Z,92523.47
2022-08-03T05:25:50.140Z,92521.06
2022-08-03T05:28:54.245Z,92526.72
2022-08-03T05:31:57.921Z,92536.56
2022-08-03T05:35:57.921Z,92515.72
2022-08-03T05:38:28.460Z,92529.06
2022-08-03T05:41:37.999Z,92531.94
2022-08-03T05:44:42.634Z,92528.25
2022-08-03T05:47:47.375Z,92545.50
2022-08-03T05:50:50.623Z,92546.66
2022-08-03T05:53:54.892Z,92552.75
2022-08-03T05:56:59.264Z,92542.88
2022-08-03T06:00:08.175Z,92537.06
2022-08-03T06:03:15.750Z,92537.81
2022-08-03T06:06:19.830Z,92523.00
2022-08-03T06:09:23.670Z,92517.53
2022-08-03T06:12:50.394Z,92516.34
2022-08-03T06:15:53.530Z,92524.81
2022-08-03T06:18:57.626Z,92523.81
2022-08-03T06:22:00.964Z,92535.97
2022-08-03T06:25:11.282Z,92539.34
2022-08-03T06:28:51.159Z,92528.78
2022-08-03T06:31:40.142Z,92532.06
2022-08-03T06:34:44.825Z,92536.31
2022-08-03T06:37:51.484Z,92537.81
2022-08-03T06:40:55.911Z,92523.69
2022-08-03T06:44:03.051Z,92506.00
2022-08-03T06:47:09.570Z,92496.69
2022-08-03T06:50:16.970Z,92484.69
2022-08-03T06:53:23.061Z,92483.22
2022-08-03T06:56:26.824Z,92494.34
2022-08-03T07:00:10.527Z,92472.69
2022-08-03T07:02:58.079Z,92465.66
2022-08-03T07:06:03.461Z,92464.97
2022-08-03T07:09:07.790Z,92485.53
2022-08-03T07:12:12.162Z,92480.94
2022-08-03T07:15:20.461Z,92487.44
2022-08-03T07:18:41.540Z,92496.59
2022-08-03T07:21:46.087Z,92502.03
2022-08-03T07:24:50.644Z,92503.72
2022-08-03T07:27:54.526Z,92502.66
2022-08-03T07:31:00.508Z,92514.72
2022-08-03T07:34:04.187Z,92518.34
2022-08-03T07:37:08.002Z,92520.88
2022-08-03T07:40:12.089Z,92551.81
2022-08-03T07:43:16.277Z,92558.28
2022-08-03T07:46:20.356Z,92573.72
2022-08-03T07:49:24.722Z,92582.41
2022-08-03T07:52:46.897Z,92582.50
2022-08-03T07:55:50.746Z,92575.94
2022-08-03T07:58:55.373Z,92547.84
2022-08-03T08:01:59.331Z,92535.00
2022-08-03T08:05:05.655Z,92496.50
2022-08-03T08:08:09.923Z,92492.50
2022-08-03T08:11:16.952Z,92476.75
2022-08-03T08:14:20.960Z,92484.81
2022-08-03T08:17:25.281Z,92480.41
2022-08-03T08:20:32.120Z,92474.84
2022-08-03T08:23:42.318Z,92472.94
2022-08-03T08:26:48.471Z,92473.91
2022-08-03T08:29:55.227Z,92475.66
2022-08-03T08:33:01.865Z,92466.50
2022-08-03T08:36:05.699Z,92468.75
2022-08-03T08:39:09.884Z,92477.81
2022-08-03T08:42:13.707Z,92479.34
2022-08-03T08:45:19.211Z,92460.56
2022-08-03T08:48:26.087Z,92457.03
2022-08-03T08:51:59.546Z,92467.63
2022-08-03T08:55:06.043Z,92467.03
2022-08-03T08:58:14.058Z,92473.06
2022-08-03T09:01:26.156Z,92479.06
2022-08-03T09:04:32.387Z,92480.41
2022-08-03T09:07:36.564Z,92478.97
2022-08-03T09:10:40.965Z,92485.91
2022-08-03T09:13:44.866Z,92495.53
2022-08-03T09:17:10.411Z,92498.91
2022-08-03T09:20:23.159Z,92497.00
2022-08-03T09:24:01.033Z,92493.63
2022-08-03T09:27:12.664Z,92495.50
2022-08-03T09:30:33.348Z,92498.59
2022-08-03T09:33:48.833Z,92491.13
2022-08-03T09:36:55.939Z,92495.94
2022-08-03T09:39:59.891Z,92494.56
2022-08-03T09:43:03.943Z,92498.66
2022-08-03T09:46:08.180Z,92501.97
2022-08-03T09:49:13.238Z,92490.53
2022-08-03T09:52:37.873Z,92484.22
2022-08-03T09:56:35.081Z,92489.88
2022-08-03T09:59:30.953Z,92463.84
2022-08-03T10:02:34.857Z,92481.31
2022-08-03T10:05:45.273Z,92476.06
2022-08-03T10:09:06.155Z,92455.75
2022-08-03T10:12:14.566Z,92456.69
2022-08-03T10:16:24.146Z,92449.56
2022-08-03T10:18:42.773Z,92439.97
2022-08-03T10:21:54.984Z,92445.41
2022-08-03T10:25:13.885Z,92451.16
2022-08-03T10:28:20.657Z,92449.78
2022-08-03T10:31:25.846Z,92453.00
2022-08-03T10:34:36.082Z,92454.31
2022-08-03T10:38:00.859Z,92459.88
2022-08-03T10:41:06.541Z,92445.69
2022-08-03T10:44:20.394Z,92435.41
2022-08-03T10:47:24.294Z,92450.69
2022-08-03T10:50:28.929Z,92451.06
2022-08-03T10:53:38.286Z,92447.44
2022-08-03T10:57:01.913Z,92456.78
2022-08-03T11:00:26.608Z,92461.78
2022-08-03T11:03:30.689Z,92450.97
2022-08-03T11:06:37.783Z,92459.84
2022-08-03T11:09:55.587Z,92450.19
2022-08-03T11:13:13.140Z,92456.69
2022-08-03T11:16:22.282Z,92470.22
2022-08-03T11:19:57.400Z,92471.25
2022-08-03T11:23:02.283Z,92478.06
2022-08-03T11:26:13.338Z,92469.75
2022-08-03T11:29:32.126Z,92465.34
2022-08-03T11:32:39.310Z,92482.13
2022-08-03T11:35:58.986Z,92488.19
2022-08-03T11:39:16.981Z,92486.72
2022-08-03T11:42:27.543Z,92491.63
2022-08-03T11:45:34.922Z,92497.13
2022-08-03T11:48:39.687Z,92516.28
2022-08-03T11:51:43.362Z,92504.91
2022-08-03T11:54:47.429Z,92496.41
2022-08-03T11:59:17.091Z,92491.13
2022-08-03T12:01:26.045Z,92497.25
2022-08-03T12:04:30.529Z,92507.25
2022-08-03T12:08:03.952Z,92508.28
2022-08-03T12:11:00.286Z,92528.09
2022-08-03T12:14:50.240Z,92542.63
2022-08-03T12:17:38.252Z,92534.34
2022-08-03T12:20:42.516Z,92554.09
2022-08-03T12:23:46.426Z,92550.03
2022-08-03T12:26:58.401Z,92550.28
2022-08-03T12:30:05.344Z,92556.56
2022-08-03T12:33:21.109Z,92555.91
2022-08-03T12:36:24.858Z,92560.91
2022-08-03T12:39:31.234Z,92563.94
2022-08-03T12:42:38.281Z,92551.81
2022-08-03T12:45:42.834Z,92545.56
2022-08-03T12:49:06.181Z,92545.69
2022-08-03T12:52:10.786Z,92534.63
2022-08-03T12:55:23.834Z,92528.56
2022-08-03T12:58:36.285Z,92527.03
2022-08-03T13:01:54.790Z,92528.06
2022-08-03T13:05:01.056Z,92541.69
2022-08-03T13:08:04.954Z,92533.88
2022-08-03T13:11:22.218Z,92529.50
2022-08-03T13:14:25.904Z,92536.84
2022-08-03T13:17:30.081Z,92532.81
2022-08-03T13:20:34.334Z,92530.66
2022-08-03T13:23:38.436Z,92533.06
2022-08-03T13:26:42.267Z,92533.72
2022-08-03T13:29:46.071Z,92512.72
2022-08-03T13:32:50.192Z,92515.66
2022-08-03T13:35:53.382Z,92512.00
2022-08-03T13:38:57.693Z,92518.59
2022-08-03T13:42:00.995Z,92519.69
2022-08-03T13:45:05.836Z,92516.47
2022-08-03T13:48:09.009Z,92531.13
2022-08-03T13:51:22.674Z,92519.75
2022-08-03T13:54:30.786Z,92529.31
2022-08-03T13:58:04.544Z,92529.13
2022-08-03T14:00:58.864Z,92511.16
2022-08-03T14:04:02.788Z,92507.84
2022-08-03T14:07:06.349Z,92500.38
2022-08-03T14:10:10.702Z,92505.66
2022-08-03T14:13:17.855Z,92515.94
2022-08-03T14:16:22.459Z,92518.69
2022-08-03T14:19:25.915Z,92515.63
2022-08-03T14:22:31.057Z,92505.09
2022-08-03T14:25:44.434Z,92515.06
2022-08-03T14:28:54.834Z,92518.25
2022-08-03T14:32:10.001Z,92499.59
2022-08-03T14:35:16.258Z,92491.41
2022-08-03T14:38:19.581Z,92507.94
2022-08-03T14:41:23.923Z,92487.97
2022-08-03T14:44:27.567Z,92483.25
2022-08-03T14:47:31.699Z,92497.72
2022-08-03T14:50:41.970Z,92510.63
2022-08-03T14:53:47.985Z,92505.63
2022-08-03T14:56:51.740Z,92488.66
2022-08-03T14:59:57.284Z,92496.16
2022-08-03T15:03:01.008Z,92497.31
2022-08-03T15:06:04.948Z,92495.88
2022-08-03T15:09:23.723Z,92494.44
2022-08-03T15:12:28.165Z,92485.56
2022-08-03T15:15:31.955Z,92495.34
2022-08-03T15:18:35.561Z,92488.66
2022-08-03T15:21:46.310Z,92489.38
2022-08-03T15:24:51.996Z,92490.97
2022-08-03T15:28:03.700Z,92490.75
2022-08-03T15:31:08.379Z,92495.84
2022-08-03T15:34:12.971Z,92480.72
2022-08-03T15:37:16.753Z,92479.59
2022-08-03T15:40:20.441Z,92486.25
2022-08-03T15:43:24.992Z,92494.59
2022-08-03T15:46:31.593Z,92495.13
2022-08-03T15:49:35.551Z,92468.81
2022-08-03T15:52:39.094Z,92485.09
2022-08-03T15:55:43.166Z,92476.91
2022-08-03T15:59:11.424Z,92483.28
2022-08-03T16:02:11.548Z,92478.44
2022-08-03T16:05:14.770Z,92474.13
2022-08-03T16:08:19.077Z,92470.63
2022-08-03T16:11:22.863Z,92473.19
2022-08-03T16:14:32.020Z,92480.72
2022-08-03T16:17:40.172Z,92485.53
2022-08-03T16:20:45.822Z,92470.97
2022-08-03T16:23:49.722Z,92469.09
2022-08-03T16:26:53.876Z,92470.50
2022-08-03T16:29:57.359Z,92464.91
2022-08-03T16:33:01.728Z,92462.34
2022-08-03T16:36:06.452Z,92466.53
2022-08-03T16:39:10.488Z,92463.06
2022-08-03T16:42:14.183Z,92459.41
2022-08-03T16:45:18.201Z,92452.75
2022-08-03T16:48:21.482Z,92454.88
2022-08-03T16:51:25.714Z,92444.16
2022-08-03T16:54:44.516Z,92443.00
2022-08-03T16:58:00.261Z,92440.34
2022-08-03T17:01:20.964Z,92439.78
2022-08-03T17:04:27.019Z,92430.19
2022-08-03T17:07:30.910Z,92416.09
2022-08-03T17:10:34.740Z,92422.19
2022-08-03T17:13:39.442Z,92423.75
2022-08-03T17:16:52.440Z,92418.66
2022-08-03T17:19:59.728Z,92415.81
2022-08-03T17:23:34.632Z,92412.06
2022-08-03T17:26:44.810Z,92407.34
2022-08-03T17:29:50.233Z,92407.09
2022-08-03T17:32:57.425Z,92405.50
2022-08-03T17:36:01.950Z,92401.69
2022-08-03T17:39:07.031Z,92400.88
2022-08-03T17:42:31.631Z,92395.19
2022-08-03T17:45:42.191Z,92382.78
2022-08-03T17:48:56.973Z,92379.31
2022-08-03T17:52:24.057Z,92377.78
2022-08-03T17:55:57.651Z,92379.22
2022-08-03T17:59:00.505Z,92378.88
2022-08-03T18:02:48.061Z,92370.88
2022-08-03T18:06:11.163Z,92363.44
2022-08-03T18:12:55.622Z,92354.88
2022-08-03T18:16:07.795Z,92363.13
2022-08-03T18:19:14.311Z,92354.94
2022-08-03T18:22:21.462Z,92354.50
2022-08-03T18:25:42.912Z,92344.91
2022-08-03T18:28:54.865Z,92351.75
2022-08-03T18:32:03.088Z,92353.28
2022-08-03T18:35:13.861Z,92336.16
2022-08-03T18:38:19.115Z,92338.81
2022-08-03T18:41:32.293Z,92331.25
2022-08-03T18:44:54.351Z,92331.53
2022-08-03T18:48:26.980Z,92321.59
2022-08-03T18:51:34.083Z,92340.50
2022-08-03T18:55:09.521Z,92330.81
2022-08-03T18:58:18.070Z,92331.88
2022-08-03T19:02:00.292Z,92329.56
2022-08-03T19:05:10.314Z,92340.63
2022-08-03T19:08:20.672Z,92332.13
2022-08-03T19:12:11.137Z,92334.75
2022-08-03T19:15:15.554Z,92326.25
2022-08-03T19:18:22.869Z,92329.41
2022-08-03T19:21:29.402Z,92329.63
2022-08-03T19:24:37.284Z,92324.63
2022-08-03T19:27:43.486Z,92308.56
2022-08-03T19:30:53.786Z,92318.41
2022-08-03T19:33:59.311Z,92312.13
2022-08-03T19:37:03.519Z,92312.91
2022-08-03T19:40:10.974Z,92308.41
2022-08-03T19:43:53.837Z,92304.78
2022-08-03T19:47:10.593Z,92293.78
2022-08-03T19:50:22.058Z,92298.75
2022-08-03T19:53:35.213Z,92290.06
2022-08-03T19:56:47.504Z,92295.97
2022-08-03T19:59:53.281Z,92288.53
2022-08-03T20:02:58.106Z,92292.78
2022-08-03T20:06:02.828Z,92288.19
2022-08-03T20:09:07.367Z,92283.16
2022-08-03T20:12:11.871Z,92268.69
2022-08-03T20:15:18.325Z,92255.72
2022-08-03T20:18:39.166Z,92256.09
2022-08-03T20:21:48.746Z,92253.44
2022-08-03T20:24:55.828Z,92250.75
2022-08-03T20:28:13.857Z,92267.59
2022-08-03T20:31:18.643Z,92269.59
2022-08-03T20:34:22.821Z,92266.44
2022-08-03T20:37:26.650Z,92279.16
2022-08-03T20:40:34.394Z,92262.63
2022-08-03T20:43:38.087Z,92272.31
2022-08-03T20:46:56.300Z,92262.00
2022-08-03T20:50:07.771Z,92273.09
2022-08-03T20:53:12.250Z,92258.56
2022-08-03T20:56:16.961Z,92236.75
2022-08-03T20:59:21.029Z,92255.00
2022-08-03T21:02:29.636Z,92262.03
2022-08-03T21:09:07.158Z,92266.84
2022-08-03T21:12:17.830Z,92254.84
2022-08-03T21:12:57.102Z,92373.88
2022-08-03T21:13:13.491Z,92261.41
2022-08-03T21:16:03.313Z,92257.88
2022-08-03T21:18:54.084Z,92260.09
2022-08-03T21:21:59.364Z,92257.94
2022-08-03T21:25:06.431Z,92267.06
2022-08-03T21:28:09.948Z,92275.31
2022-08-03T21:31:22.321Z,92268.00
2022-08-03T21:34:31.312Z,92259.69
2022-08-03T21:37:35.638Z,92253.22
2022-08-03T21:40:41.625Z,92251.53
2022-08-03T21:43:45.308Z,92248.75
2022-08-03T21:46:54.790Z,92245.06
2022-08-03T21:50:06.039Z,92251.22
2022-08-03T21:53:13.164Z,92253.19
2022-08-03T21:56:20.704Z,92241.25
2022-08-03T21:59:25.694Z,92234.75
2022-08-03T22:02:32.238Z,92239.41
2022-08-03T22:05:44.013Z,92248.03
2022-08-03T22:08:49.555Z,92257.00
2022-08-03T22:11:55.210Z,92264.72
2022-08-03T22:15:01.999Z,92255.63
2022-08-03T22:18:06.719Z,92270.44
2022-08-03T22:21:12.762Z,92262.50
2022-08-03T22:24:23.905Z,92274.44
2022-08-03T22:27:32.184Z,92266.78
2022-08-03T22:30:36.589Z,92246.56
2022-08-03T22:33:40.881Z,92259.50
2022-08-03T22:36:44.359Z,92263.91
2022-08-03T22:39:48.652Z,92283.00
2022-08-03T22:42:53.271Z,92292.84
2022-08-03T22:46:09.160Z,92278.31
2022-08-03T22:49:16.086Z,92268.75
2022-08-03T22:52:21.101Z,92252.69
2022-08-03T22:55:25.341Z,92259.75
2022-08-03T22:58:28.912Z,92241.81
2022-08-03T23:01:41.586Z,92233.88
2022-08-03T23:04:46.493Z,92247.34
2022-08-03T23:07:52.022Z,92224.06
2022-08-03T23:11:01.744Z,92242.25
2022-08-03T23:14:12.067Z,92241.13
2022-08-03T23:17:16.562Z,92237.63
2022-08-03T23:20:21.149Z,92237.06
2022-08-03T23:23:43.882Z,92241.00
2022-08-03T23:26:49.885Z,92248.00
2022-08-03T23:29:54.997Z,92245.94
2022-08-03T23:33:02.244Z,92234.84
2022-08-03T23:36:27.861Z,92232.72
2022-08-03T23:39:36.276Z,92244.41
2022-08-03T23:42:43.104Z,92245.44
2022-08-03T23:45:49.428Z,92242.69
2022-08-03T23:48:56.406Z,92239.81
2022-08-03T23:52:03.291Z,92242.91
2022-08-03T23:55:21.934Z,92247.34
2022-08-03T23:58:56.651Z,92244.41
